sensor_id;sensor_type;location;lat;lon;timestamp;pressure;altitude;pressure_sealevel;temperature;humidity
68508;BME280;55510;49.560;19.090;2023-04-19T00:02:23;96671.22;;;8.15;99.82
68508;BME280;55510;49.560;19.090;2023-04-19T00:05:25;96662.66;;;8.12;99.58
68508;BME280;55510;49.560;19.090;2023-04-19T00:08:25;96666.16;;;8.13;99.20
68508;BME280;55510;49.560;19.090;2023-04-19T00:11:26;96665.56;;;8.11;99.15
68508;BME280;55510;49.560;19.090;2023-04-19T00:14:27;96663.94;;;8.10;99.68
68508;BME280;55510;49.560;19.090;2023-04-19T00:17:28;96650.09;;;8.08;99.78
68508;BME280;55510;49.560;19.090;2023-04-19T00:20:28;96648.47;;;8.07;99.84
68508;BME280;55510;49.560;19.090;2023-04-19T00:23:29;96648.47;;;8.07;99.80
68508;BME280;55510;49.560;19.090;2023-04-19T00:26:30;96652.16;;;8.06;99.61
68508;BME280;55510;49.560;19.090;2023-04-19T00:29:33;96647.31;;;8.03;100.00
68508;BME280;55510;49.560;19.090;2023-04-19T00:32:33;96636.13;;;8.01;100.00
68508;BME280;55510;49.560;19.090;2023-04-19T00:35:34;96637.16;;;8.00;100.00
68508;BME280;55510;49.560;19.090;2023-04-19T00:38:35;96633.47;;;8.01;100.00
68508;BME280;55510;49.560;19.090;2023-04-19T00:41:36;96628.16;;;8.01;100.00
68508;BME280;55510;49.560;19.090;2023-04-19T00:44:36;96615.13;;;7.99;100.00
68508;BME280;55510;49.560;19.090;2023-04-19T00:47:37;96614.31;;;7.98;100.00
68508;BME280;55510;49.560;19.090;2023-04-19T00:50:38;96618.81;;;7.98;100.00
68508;BME280;55510;49.560;19.090;2023-04-19T00:53:40;96617.19;;;7.97;100.00
68508;BME280;55510;49.560;19.090;2023-04-19T00:56:40;96613.13;;;7.94;100.00
68508;BME280;55510;49.560;19.090;2023-04-19T00:59:41;96618.41;;;7.94;100.00
68508;BME280;55510;49.560;19.090;2023-04-19T01:02:42;96611.50;;;7.93;100.00
68508;BME280;55510;49.560;19.090;2023-04-19T01:05:43;96609.69;;;7.94;100.00
68508;BME280;55510;49.560;19.090;2023-04-19T01:08:43;96609.88;;;7.92;100.00
68508;BME280;55510;49.560;19.090;2023-04-19T01:11:44;96610.31;;;7.89;100.00
68508;BME280;55510;49.560;19.090;2023-04-19T01:14:46;96609.53;;;7.89;100.00
68508;BME280;55510;49.560;19.090;2023-04-19T01:17:46;96600.16;;;7.86;100.00
68508;BME280;55510;49.560;19.090;2023-04-19T01:20:47;96588.41;;;7.82;100.00
68508;BME280;55510;49.560;19.090;2023-04-19T01:23:48;96589.88;;;7.78;100.00
68508;BME280;55510;49.560;19.090;2023-04-19T01:26:48;96581.91;;;7.78;100.00
68508;BME280;55510;49.560;19.090;2023-04-19T01:29:49;96575.44;;;7.74;100.00
68508;BME280;55510;49.560;19.090;2023-04-19T01:32:50;96574.63;;;7.73;100.00
68508;BME280;55510;49.560;19.090;2023-04-19T01:35:50;96567.94;;;7.71;100.00
68508;BME280;55510;49.560;19.090;2023-04-19T01:38:51;96558.59;;;7.68;100.00
68508;BME280;55510;49.560;19.090;2023-04-19T01:41:52;96560.66;;;7.66;100.00
68508;BME280;55510;49.560;19.090;2023-04-19T01:44:52;96558.00;;;7.66;100.00
68508;BME280;55510;49.560;19.090;2023-04-19T01:47:53;96553.53;;;7.66;100.00
68508;BME280;55510;49.560;19.090;2023-04-19T01:50:55;96546.59;;;7.65;100.00
68508;BME280;55510;49.560;19.090;2023-04-19T01:53:56;96551.91;;;7.65;100.00
68508;BME280;55510;49.560;19.090;2023-04-19T01:56:57;96538.88;;;7.64;100.00
68508;BME280;55510;49.560;19.090;2023-04-19T01:59:58;96540.56;;;7.58;100.00
68508;BME280;55510;49.560;19.090;2023-04-19T02:02:59;96531.88;;;7.51;100.00
68508;BME280;55510;49.560;19.090;2023-04-19T02:05:59;96538.63;;;7.47;100.00
68508;BME280;55510;49.560;19.090;2023-04-19T02:09:00;96532.75;;;7.45;100.00
68508;BME280;55510;49.560;19.090;2023-04-19T02:12:01;96532.16;;;7.43;100.00
68508;BME280;55510;49.560;19.090;2023-04-19T02:15:01;96530.78;;;7.40;100.00
68508;BME280;55510;49.560;19.090;2023-04-19T02:18:02;96530.41;;;7.36;100.00
68508;BME280;55510;49.560;19.090;2023-04-19T02:21:07;96528.41;;;7.32;100.00
68508;BME280;55510;49.560;19.090;2023-04-19T02:24:07;96527.38;;;7.33;100.00
68508;BME280;55510;49.560;19.090;2023-04-19T02:27:08;96520.03;;;7.35;100.00
68508;BME280;55510;49.560;19.090;2023-04-19T02:30:09;96510.69;;;7.32;100.00
68508;BME280;55510;49.560;19.090;2023-04-19T02:33:10;96505.81;;;7.29;100.00
68508;BME280;55510;49.560;19.090;2023-04-19T02:36:12;96510.31;;;7.29;100.00
68508;BME280;55510;49.560;19.090;2023-04-19T02:39:12;96505.81;;;7.29;100.00
68508;BME280;55510;49.560;19.090;2023-04-19T02:42:13;96498.47;;;7.31;100.00
68508;BME280;55510;49.560;19.090;2023-04-19T02:45:13;96492.16;;;7.32;100.00
68508;BME280;55510;49.560;19.090;2023-04-19T02:48:14;96488.31;;;7.28;100.00
68508;BME280;55510;49.560;19.090;2023-04-19T02:51:15;96488.53;;;7.26;100.00
68508;BME280;55510;49.560;19.090;2023-04-19T02:54:17;96483.03;;;7.28;100.00
68508;BME280;55510;49.560;19.090;2023-04-19T02:57:18;96481.41;;;7.27;100.00
68508;BME280;55510;49.560;19.090;2023-04-19T03:00:19;96473.69;;;7.25;100.00
68508;BME280;55510;49.560;19.090;2023-04-19T03:03:20;96477.53;;;7.30;100.00
68508;BME280;55510;49.560;19.090;2023-04-19T03:06:21;96475.69;;;7.30;100.00
68508;BME280;55510;49.560;19.090;2023-04-19T03:09:21;96465.53;;;7.27;100.00
68508;BME280;55510;49.560;19.090;2023-04-19T03:12:22;96457.00;;;7.25;100.00
68508;BME280;55510;49.560;19.090;2023-04-19T03:15:22;96459.84;;;7.23;100.00
68508;BME280;55510;49.560;19.090;2023-04-19T03:18:23;96458.25;;;7.22;100.00
68508;BME280;55510;49.560;19.090;2023-04-19T03:21:24;96440.75;;;7.21;100.00
68508;BME280;55510;49.560;19.090;2023-04-19T03:24:28;96440.38;;;7.18;100.00
68508;BME280;55510;49.560;19.090;2023-04-19T03:27:29;96439.56;;;7.17;100.00
68508;BME280;55510;49.560;19.090;2023-04-19T03:30:30;96442.81;;;7.19;100.00
68508;BME280;55510;49.560;19.090;2023-04-19T03:33:30;96440.97;;;7.20;100.00
68508;BME280;55510;49.560;19.090;2023-04-19T03:36:31;96448.09;;;7.19;100.00
68508;BME280;55510;49.560;19.090;2023-04-19T03:39:32;96438.78;;;7.17;100.00
68508;BME280;55510;49.560;19.090;2023-04-19T03:42:32;96438.38;;;7.13;100.00
68508;BME280;55510;49.560;19.090;2023-04-19T03:45:33;96433.91;;;7.14;100.00
68508;BME280;55510;49.560;19.090;2023-04-19T03:48:34;96425.41;;;7.11;100.00
68508;BME280;55510;49.560;19.090;2023-04-19T03:51:35;96422.75;;;7.11;100.00
68508;BME280;55510;49.560;19.090;2023-04-19T03:54:36;96423.97;;;7.09;100.00
68508;BME280;55510;49.560;19.090;2023-04-19T03:57:36;96418.47;;;7.10;100.00
68508;BME280;55510;49.560;19.090;2023-04-19T04:00:37;96421.72;;;7.13;100.00
68508;BME280;55510;49.560;19.090;2023-04-19T04:03:38;96417.47;;;7.11;100.00
68508;BME280;55510;49.560;19.090;2023-04-19T04:06:39;96416.88;;;7.09;100.00
68508;BME280;55510;49.560;19.090;2023-04-19T04:09:39;96409.97;;;7.08;100.00
68508;BME280;55510;49.560;19.090;2023-04-19T04:12:40;96409.97;;;7.08;100.00
68508;BME280;55510;49.560;19.090;2023-04-19T04:15:40;96406.28;;;7.09;100.00
68508;BME280;55510;49.560;19.090;2023-04-19T04:18:42;96405.84;;;7.13;100.00
68508;BME280;55510;49.560;19.090;2023-04-19T04:21:42;96407.66;;;7.12;100.00
68508;BME280;55510;49.560;19.090;2023-04-19T04:24:43;96411.94;;;7.13;100.00
68508;BME280;55510;49.560;19.090;2023-04-19T04:27:44;96414.56;;;7.13;100.00
68508;BME280;55510;49.560;19.090;2023-04-19T04:30:45;96413.78;;;7.13;100.00
68508;BME280;55510;49.560;19.090;2023-04-19T04:33:46;96406.63;;;7.13;100.00
68508;BME280;55510;49.560;19.090;2023-04-19T04:36:47;96405.00;;;7.12;100.00
68508;BME280;55510;49.560;19.090;2023-04-19T04:39:49;96406.28;;;7.09;100.00
68508;BME280;55510;49.560;19.090;2023-04-19T04:42:50;96404.88;;;7.07;100.00
68508;BME280;55510;49.560;19.090;2023-04-19T04:45:52;96403.47;;;7.04;100.00
68508;BME280;55510;49.560;19.090;2023-04-19T04:48:55;96401.50;;;7.00;100.00
68508;BME280;55510;49.560;19.090;2023-04-19T04:51:55;96395.38;;;6.99;100.00
68508;BME280;55510;49.560;19.090;2023-04-19T04:54:56;96399.00;;;7.05;100.00
68508;BME280;55510;49.560;19.090;2023-04-19T04:57:57;96399.97;;;7.10;100.00
68508;BME280;55510;49.560;19.090;2023-04-19T05:00:58;96398.25;;;7.16;100.00
68508;BME280;55510;49.560;19.090;2023-04-19T05:03:59;96398.63;;;7.20;100.00
68508;BME280;55510;49.560;19.090;2023-04-19T05:06:59;96393.09;;;7.21;100.00
68508;BME280;55510;49.560;19.090;2023-04-19T05:10:00;96387.94;;;7.26;100.00
68508;BME280;55510;49.560;19.090;2023-04-19T05:13:01;96388.31;;;7.30;100.00
68508;BME280;55510;49.560;19.090;2023-04-19T05:16:01;96386.06;;;7.34;100.00
68508;BME280;55510;49.560;19.090;2023-04-19T05:19:02;96382.06;;;7.43;100.00
68508;BME280;55510;49.560;19.090;2023-04-19T05:22:04;96380.50;;;7.54;100.00
68508;BME280;55510;49.560;19.090;2023-04-19T05:25:06;96388.47;;;7.66;100.00
68508;BME280;55510;49.560;19.090;2023-04-19T05:28:06;96387.72;;;7.77;100.00
68508;BME280;55510;49.560;19.090;2023-04-19T05:31:07;96389.47;;;7.83;100.00
68508;BME280;55510;49.560;19.090;2023-04-19T05:34:08;96390.75;;;7.93;100.00
68508;BME280;55510;49.560;19.090;2023-04-19T05:37:09;96383.97;;;7.97;100.00
68508;BME280;55510;49.560;19.090;2023-04-19T05:40:10;96378.31;;;7.93;100.00
68508;BME280;55510;49.560;19.090;2023-04-19T05:43:11;96374.63;;;7.94;100.00
68508;BME280;55510;49.560;19.090;2023-04-19T05:46:11;96376.69;;;7.92;100.00
68508;BME280;55510;49.560;19.090;2023-04-19T05:49:12;96369.56;;;7.93;100.00
68508;BME280;55510;49.560;19.090;2023-04-19T05:52:13;96368.16;;;7.90;100.00
68508;BME280;55510;49.560;19.090;2023-04-19T05:55:14;96364.94;;;7.88;100.00
68508;BME280;55510;49.560;19.090;2023-04-19T05:58:14;96363.44;;;7.92;100.00
68508;BME280;55510;49.560;19.090;2023-04-19T06:01:15;96361.97;;;7.96;100.00
68508;BME280;55510;49.560;19.090;2023-04-19T06:04:16;96365.22;;;7.98;100.00
68508;BME280;55510;49.560;19.090;2023-04-19T06:07:16;96367.41;;;8.02;100.00
68508;BME280;55510;49.560;19.090;2023-04-19T06:10:17;96363.72;;;8.03;100.00
68508;BME280;55510;49.560;19.090;2023-04-19T06:13:18;96369.03;;;8.03;100.00
68508;BME280;55510;49.560;19.090;2023-04-19T06:16:20;96369.59;;;8.05;100.00
68508;BME280;55510;49.560;19.090;2023-04-19T06:19:21;96364.63;;;8.08;100.00
68508;BME280;55510;49.560;19.090;2023-04-19T06:22:22;96363.03;;;8.07;100.00
68508;BME280;55510;49.560;19.090;2023-04-19T06:25:23;96366.38;;;8.03;100.00
68508;BME280;55510;49.560;19.090;2023-04-19T06:28:23;96363.59;;;7.97;100.00
68508;BME280;55510;49.560;19.090;2023-04-19T06:31:24;96360.38;;;7.95;100.00
68508;BME280;55510;49.560;19.090;2023-04-19T06:34:25;96373.38;;;7.97;100.00
68508;BME280;55510;49.560;19.090;2023-04-19T06:37:25;96370.72;;;7.97;100.00
68508;BME280;55510;49.560;19.090;2023-04-19T06:40:26;96370.69;;;7.85;100.00
68508;BME280;55510;49.560;19.090;2023-04-19T06:43:28;96375.19;;;7.84;100.00
68508;BME280;55510;49.560;19.090;2023-04-19T06:46:29;96367.91;;;7.80;100.00
68508;BME280;55510;49.560;19.090;2023-04-19T06:49:30;96376.38;;;7.70;100.00
68508;BME280;55510;49.560;19.090;2023-04-19T06:52:30;96377.53;;;7.62;100.00
68508;BME280;55510;49.560;19.090;2023-04-19T06:55:31;96375.22;;;7.54;100.00
68508;BME280;55510;49.560;19.090;2023-04-19T06:58:32;96370.06;;;7.40;100.00
68508;BME280;55510;49.560;19.090;2023-04-19T07:01:33;96371.34;;;7.38;100.00
68508;BME280;55510;49.560;19.090;2023-04-19T07:04:33;96374.63;;;7.33;100.00
68508;BME280;55510;49.560;19.090;2023-04-19T07:07:34;96380.81;;;7.27;99.56
68508;BME280;55510;49.560;19.090;2023-04-19T07:10:38;96391.94;;;7.17;96.99
68508;BME280;55510;49.560;19.090;2023-04-19T07:13:39;96392.47;;;7.07;92.89
68508;BME280;55510;49.560;19.090;2023-04-19T07:16:40;96393.69;;;7.05;92.88
68508;BME280;55510;49.560;19.090;2023-04-19T07:19:41;96398.63;;;7.01;91.76
68508;BME280;55510;49.560;19.090;2023-04-19T07:22:41;96397.53;;;6.90;90.35
68508;BME280;55510;49.560;19.090;2023-04-19T07:25:42;96411.53;;;6.91;91.22
68508;BME280;55510;49.560;19.090;2023-04-19T07:28:43;96413.91;;;6.80;89.90
68508;BME280;55510;49.560;19.090;2023-04-19T07:31:44;96417.84;;;6.71;90.34
68508;BME280;55510;49.560;19.090;2023-04-19T07:34:45;96420.00;;;6.56;90.21
68508;BME280;55510;49.560;19.090;2023-04-19T07:37:47;96426.75;;;6.51;92.02
68508;BME280;55510;49.560;19.090;2023-04-19T07:40:48;96423.34;;;6.44;91.88
68508;BME280;55510;49.560;19.090;2023-04-19T07:43:49;96422.81;;;6.35;92.80
68508;BME280;55510;49.560;19.090;2023-04-19T07:46:49;96422.44;;;6.32;93.62
68508;BME280;55510;49.560;19.090;2023-04-19T07:49:52;96423.25;;;6.32;94.49
68508;BME280;55510;49.560;19.090;2023-04-19T07:52:53;96424.06;;;6.33;95.67
68508;BME280;55510;49.560;19.090;2023-04-19T07:55:54;96420.41;;;6.34;96.48
68508;BME280;55510;49.560;19.090;2023-04-19T07:58:55;96424.22;;;6.38;97.32
68508;BME280;55510;49.560;19.090;2023-04-19T08:01:56;96421.59;;;6.38;97.96
68508;BME280;55510;49.560;19.090;2023-04-19T08:04:56;96423.78;;;6.41;98.31
68508;BME280;55510;49.560;19.090;2023-04-19T08:07:57;96426.00;;;6.44;99.37
68508;BME280;55510;49.560;19.090;2023-04-19T08:10:57;96420.72;;;6.44;99.39
68508;BME280;55510;49.560;19.090;2023-04-19T08:14:01;96425.81;;;6.46;99.89
68508;BME280;55510;49.560;19.090;2023-04-19T08:17:02;96425.56;;;6.47;100.00
68508;BME280;55510;49.560;19.090;2023-04-19T08:20:04;96418.63;;;6.53;100.00
68508;BME280;55510;49.560;19.090;2023-04-19T08:23:06;96417.75;;;6.59;100.00
68508;BME280;55510;49.560;19.090;2023-04-19T08:26:08;96410.22;;;6.63;100.00
68508;BME280;55510;49.560;19.090;2023-04-19T08:29:09;96415.66;;;6.68;100.00
68508;BME280;55510;49.560;19.090;2023-04-19T08:32:11;96408.66;;;6.74;100.00
68508;BME280;55510;49.560;19.090;2023-04-19T08:35:12;96409.63;;;6.79;100.00
68508;BME280;55510;49.560;19.090;2023-04-19T08:38:13;96413.44;;;6.84;100.00
68508;BME280;55510;49.560;19.090;2023-04-19T08:41:17;96408.16;;;6.84;99.85
68508;BME280;55510;49.560;19.090;2023-04-19T08:44:19;96412.72;;;6.95;100.00
68508;BME280;55510;49.560;19.090;2023-04-19T08:47:21;96408.75;;;7.04;100.00
68508;BME280;55510;49.560;19.090;2023-04-19T08:50:22;96412.38;;;7.10;99.13
68508;BME280;55510;49.560;19.090;2023-04-19T08:53:25;96413.19;;;7.10;98.06
68508;BME280;55510;49.560;19.090;2023-04-19T08:56:28;96405.97;;;7.18;99.32
68508;BME280;55510;49.560;19.090;2023-04-19T08:59:28;96410.59;;;7.22;98.14
68508;BME280;55510;49.560;19.090;2023-04-19T09:02:52;96400.38;;;7.26;97.67
68508;BME280;55510;49.560;19.090;2023-04-19T09:05:55;96408.47;;;7.31;97.70
68508;BME280;55510;49.560;19.090;2023-04-19T09:09:16;96405.38;;;7.34;97.76
68508;BME280;55510;49.560;19.090;2023-04-19T09:12:17;96405.97;;;7.36;97.66
68508;BME280;55510;49.560;19.090;2023-04-19T09:15:34;96409.19;;;7.38;98.12
68508;BME280;55510;49.560;19.090;2023-04-19T09:18:55;96409.63;;;7.35;98.35
68508;BME280;55510;49.560;19.090;2023-04-19T09:22:11;96411.41;;;7.23;98.66
68508;BME280;55510;49.560;19.090;2023-04-19T09:25:23;96415.47;;;7.07;95.96
68508;BME280;55510;49.560;19.090;2023-04-19T09:28:29;96412.00;;;7.06;96.68
68508;BME280;55510;49.560;19.090;2023-04-19T09:31:32;96415.25;;;7.08;98.70
68508;BME280;55510;49.560;19.090;2023-04-19T09:34:33;96412.00;;;7.06;98.27
68508;BME280;55510;49.560;19.090;2023-04-19T09:37:34;96407.91;;;7.10;98.35
68508;BME280;55510;49.560;19.090;2023-04-19T09:40:35;96412.94;;;7.12;98.68
68508;BME280;55510;49.560;19.090;2023-04-19T09:43:36;96401.63;;;7.23;99.78
68508;BME280;55510;49.560;19.090;2023-04-19T09:46:37;96391.25;;;7.40;100.00
68508;BME280;55510;49.560;19.090;2023-04-19T09:49:38;96397.63;;;7.51;99.42
68508;BME280;55510;49.560;19.090;2023-04-19T09:52:38;96402.84;;;7.58;98.39
68508;BME280;55510;49.560;19.090;2023-04-19T09:55:40;96397.50;;;7.77;98.19
68508;BME280;55510;49.560;19.090;2023-04-19T09:58:42;96393.41;;;7.93;98.56
68508;BME280;55510;49.560;19.090;2023-04-19T10:01:53;96392.53;;;8.11;99.20
68508;BME280;55510;49.560;19.090;2023-04-19T10:04:54;96389.09;;;8.22;99.27
68508;BME280;55510;49.560;19.090;2023-04-19T10:07:56;96387.81;;;8.13;96.06
68508;BME280;55510;49.560;19.090;2023-04-19T10:10:59;96388.69;;;7.95;96.75
68508;BME280;55510;49.560;19.090;2023-04-19T10:14:06;96383.31;;;8.02;98.92
68508;BME280;55510;49.560;19.090;2023-04-19T10:17:08;96380.38;;;7.91;98.89
68508;BME280;55510;49.560;19.090;2023-04-19T10:20:13;96383.69;;;7.75;98.92
68508;BME280;55510;49.560;19.090;2023-04-19T10:23:17;96377.44;;;7.69;99.37
68508;BME280;55510;49.560;19.090;2023-04-19T10:26:18;96379.69;;;7.53;98.44
68508;BME280;55510;49.560;19.090;2023-04-19T10:32:56;96382.13;;;7.55;100.00
68508;BME280;55510;49.560;19.090;2023-04-19T10:35:58;96380.78;;;7.64;100.00
68508;BME280;55510;49.560;19.090;2023-04-19T10:38:59;96382.38;;;7.65;100.00
68508;BME280;55510;49.560;19.090;2023-04-19T10:42:00;96389.75;;;7.63;100.00
68508;BME280;55510;49.560;19.090;2023-04-19T10:45:32;96397.13;;;7.43;100.00
68508;BME280;55510;49.560;19.090;2023-04-19T10:48:38;96402.41;;;7.43;100.00
68508;BME280;55510;49.560;19.090;2023-04-19T10:51:46;96409.78;;;7.40;100.00
68508;BME280;55510;49.560;19.090;2023-04-19T10:54:54;96409.63;;;7.35;100.00
68508;BME280;55510;49.560;19.090;2023-04-19T10:58:05;96414.22;;;7.28;99.87
68508;BME280;55510;49.560;19.090;2023-04-19T11:01:41;96410.00;;;7.20;99.18
68508;BME280;55510;49.560;19.090;2023-04-19T11:07:49;96394.56;;;7.36;99.77
68508;BME280;55510;49.560;19.090;2023-04-19T11:10:50;96398.53;;;7.45;99.75
68508;BME280;55510;49.560;19.090;2023-04-19T11:13:52;96401.81;;;7.59;99.91
68508;BME280;55510;49.560;19.090;2023-04-19T11:16:54;96404.41;;;7.78;99.55
68508;BME280;55510;49.560;19.090;2023-04-19T11:22:57;96408.78;;;8.03;97.66
68508;BME280;55510;49.560;19.090;2023-04-19T11:26:00;96399.34;;;8.07;95.34
68508;BME280;55510;49.560;19.090;2023-04-19T11:29:01;96400.81;;;8.15;95.31
68508;BME280;55510;49.560;19.090;2023-04-19T11:32:03;96407.06;;;8.20;94.66
68508;BME280;55510;49.560;19.090;2023-04-19T11:35:07;96403.25;;;8.16;93.33
68508;BME280;55510;49.560;19.090;2023-04-19T11:38:11;96403.56;;;7.96;90.45
68508;BME280;55510;49.560;19.090;2023-04-19T11:41:12;96411.59;;;7.89;91.39
68508;BME280;55510;49.560;19.090;2023-04-19T11:44:17;96408.69;;;7.79;91.35
68508;BME280;55510;49.560;19.090;2023-04-19T11:47:19;96410.53;;;7.78;92.31
68508;BME280;55510;49.560;19.090;2023-04-19T11:50:30;96413.41;;;7.77;91.54
68508;BME280;55510;49.560;19.090;2023-04-19T11:53:31;96407.69;;;7.61;90.21
68508;BME280;55510;49.560;19.090;2023-04-19T11:56:32;96416.53;;;7.55;91.71
68508;BME280;55510;49.560;19.090;2023-04-19T11:59:35;96413.59;;;7.45;91.87
68508;BME280;55510;49.560;19.090;2023-04-19T12:02:37;96419.34;;;7.42;92.85
68508;BME280;55510;49.560;19.090;2023-04-19T12:05:38;96425.75;;;7.34;93.08
68508;BME280;55510;49.560;19.090;2023-04-19T12:08:48;96426.41;;;7.29;93.40
68508;BME280;55510;49.560;19.090;2023-04-19T12:11:48;96422.66;;;7.18;93.48
68508;BME280;55510;49.560;19.090;2023-04-19T12:14:52;96427.59;;;7.15;94.01
68508;BME280;55510;49.560;19.090;2023-04-19T12:17:58;96425.41;;;7.11;94.32
68508;BME280;55510;49.560;19.090;2023-04-19T12:20:59;96419.28;;;7.11;94.35
68508;BME280;55510;49.560;19.090;2023-04-19T12:24:00;96417.06;;;7.08;94.28
68508;BME280;55510;49.560;19.090;2023-04-19T12:27:01;96413.84;;;7.06;93.74
68508;BME280;55510;49.560;19.090;2023-04-19T12:30:03;96416.69;;;7.04;93.34
68508;BME280;55510;49.560;19.090;2023-04-19T12:33:05;96424.22;;;7.07;93.58
68508;BME280;55510;49.560;19.090;2023-04-19T12:36:06;96428.75;;;7.00;93.14
68508;BME280;55510;49.560;19.090;2023-04-19T12:39:07;96420.81;;;7.00;93.04
68508;BME280;55510;49.560;19.090;2023-04-19T12:42:08;96427.06;;;7.06;92.96
68508;BME280;55510;49.560;19.090;2023-04-19T12:45:09;96427.72;;;7.01;93.20
68508;BME280;55510;49.560;19.090;2023-04-19T12:48:10;96425.06;;;7.01;93.31
68508;BME280;55510;49.560;19.090;2023-04-19T12:51:11;96422.66;;;7.00;93.72
68508;BME280;55510;49.560;19.090;2023-04-19T12:54:12;96430.38;;;7.01;94.29
68508;BME280;55510;49.560;19.090;2023-04-19T12:57:13;96432.41;;;6.99;94.34
68508;BME280;55510;49.560;19.090;2023-04-19T13:00:14;96425.59;;;6.91;94.41
68508;BME280;55510;49.560;19.090;2023-04-19T13:03:15;96432.13;;;6.89;94.91
68508;BME280;55510;49.560;19.090;2023-04-19T13:06:16;96426.03;;;6.88;94.81
68508;BME280;55510;49.560;19.090;2023-04-19T13:09:17;96427.56;;;6.77;93.97
68508;BME280;55510;49.560;19.090;2023-04-19T13:12:18;96421.09;;;6.73;93.64
68508;BME280;55510;49.560;19.090;2023-04-19T13:15:19;96429.03;;;6.73;94.27
68508;BME280;55510;49.560;19.090;2023-04-19T13:18:20;96422.13;;;6.72;93.92
68508;BME280;55510;49.560;19.090;2023-04-19T13:21:21;96422.75;;;6.67;94.43
68508;BME280;55510;49.560;19.090;2023-04-19T13:24:23;96425.44;;;6.61;94.75
68508;BME280;55510;49.560;19.090;2023-04-19T13:27:23;96429.94;;;6.60;95.07
68508;BME280;55510;49.560;19.090;2023-04-19T13:30:26;96432.34;;;6.62;95.76
68508;BME280;55510;49.560;19.090;2023-04-19T13:33:28;96436.84;;;6.61;95.70
68508;BME280;55510;49.560;19.090;2023-04-19T13:36:28;96432.34;;;6.62;96.18
68508;BME280;55510;49.560;19.090;2023-04-19T13:39:29;96432.97;;;6.64;96.61
68508;BME280;55510;49.560;19.090;2023-04-19T13:42:30;96429.91;;;6.67;96.34
68508;BME280;55510;49.560;19.090;2023-04-19T13:45:33;96433.34;;;6.67;95.69
68508;BME280;55510;49.560;19.090;2023-04-19T13:48:34;96427.84;;;6.69;95.44
68508;BME280;55510;49.560;19.090;2023-04-19T13:51:35;96420.56;;;6.64;94.67
68508;BME280;55510;49.560;19.090;2023-04-19T13:54:35;96423.44;;;6.63;93.85
68508;BME280;55510;49.560;19.090;2023-04-19T13:57:36;96428.31;;;6.59;93.48
68508;BME280;55510;49.560;19.090;2023-04-19T14:00:38;96416.94;;;6.59;93.31
68508;BME280;55510;49.560;19.090;2023-04-19T14:03:39;96424.69;;;6.53;94.24
68508;BME280;55510;49.560;19.090;2023-04-19T14:06:40;96421.47;;;6.51;95.19
68508;BME280;55510;49.560;19.090;2023-04-19T14:09:40;96419.09;;;6.43;96.60
68508;BME280;55510;49.560;19.090;2023-04-19T14:12:41;96418.50;;;6.41;97.44
68508;BME280;55510;49.560;19.090;2023-04-19T14:15:42;96420.56;;;6.39;98.24
68508;BME280;55510;49.560;19.090;2023-04-19T14:18:42;96417.53;;;6.35;98.14
68508;BME280;55510;49.560;19.090;2023-04-19T14:21:43;96419.16;;;6.36;98.90
68508;BME280;55510;49.560;19.090;2023-04-19T14:24:44;96421.19;;;6.34;99.68
68508;BME280;55510;49.560;19.090;2023-04-19T14:27:46;96427.31;;;6.35;99.89
68508;BME280;55510;49.560;19.090;2023-04-19T14:30:46;96432.16;;;6.38;100.00
68508;BME280;55510;49.560;19.090;2023-04-19T14:33:47;96429.94;;;6.35;99.40
68508;BME280;55510;49.560;19.090;2023-04-19T14:36:47;96433.13;;;6.44;99.44
68508;BME280;55510;49.560;19.090;2023-04-19T14:39:49;96434.69;;;6.51;99.30
68508;BME280;55510;49.560;19.090;2023-04-19T14:42:49;96443.88;;;6.49;98.91
68508;BME280;55510;49.560;19.090;2023-04-19T14:45:52;96449.19;;;6.42;99.06
68508;BME280;55510;49.560;19.090;2023-04-19T14:48:52;96443.16;;;6.35;98.50
68508;BME280;55510;49.560;19.090;2023-04-19T14:51:53;96447.09;;;6.26;98.94
68508;BME280;55510;49.560;19.090;2023-04-19T14:54:54;96445.69;;;6.23;98.90
68508;BME280;55510;49.560;19.090;2023-04-19T14:57:54;96443.91;;;6.17;99.19
68508;BME280;55510;49.560;19.090;2023-04-19T15:00:57;96454.47;;;6.17;100.00
68508;BME280;55510;49.560;19.090;2023-04-19T15:03:58;96454.72;;;6.08;99.45
68508;BME280;55510;49.560;19.090;2023-04-19T15:06:59;96455.78;;;6.01;100.00
68508;BME280;55510;49.560;19.090;2023-04-19T15:10:00;96451.91;;;5.97;100.00
68508;BME280;55510;49.560;19.090;2023-04-19T15:13:00;96453.38;;;5.92;100.00
68508;BME280;55510;49.560;19.090;2023-04-19T15:16:01;96460.47;;;5.92;100.00
68508;BME280;55510;49.560;19.090;2023-04-19T15:19:03;96454.38;;;5.91;100.00
68508;BME280;55510;49.560;19.090;2023-04-19T15:22:06;96452.97;;;5.89;100.00
68508;BME280;55510;49.560;19.090;2023-04-19T15:25:07;96456.84;;;5.86;100.00
68508;BME280;55510;49.560;19.090;2023-04-19T15:28:08;96461.53;;;5.84;100.00
68508;BME280;55510;49.560;19.090;2023-04-19T15:31:09;96461.97;;;5.81;100.00
68508;BME280;55510;49.560;19.090;2023-04-19T15:34:10;96466.66;;;5.79;100.00
68508;BME280;55510;49.560;19.090;2023-04-19T15:37:10;96462.81;;;5.75;100.00
68508;BME280;55510;49.560;19.090;2023-04-19T15:40:11;96465.84;;;5.72;100.00
68508;BME280;55510;49.560;19.090;2023-04-19T15:43:13;96465.47;;;5.68;100.00
68508;BME280;55510;49.560;19.090;2023-04-19T15:46:14;96479.88;;;5.65;100.00
68508;BME280;55510;49.560;19.090;2023-04-19T15:49:15;96475.63;;;5.64;100.00
68508;BME280;55510;49.560;19.090;2023-04-19T15:52:16;96469.16;;;5.60;100.00
68508;BME280;55510;49.560;19.090;2023-04-19T15:55:18;96482.16;;;5.55;100.00
68508;BME280;55510;49.560;19.090;2023-04-19T15:58:18;96479.34;;;5.50;100.00
68508;BME280;55510;49.560;19.090;2023-04-19T16:01:19;96484.63;;;5.50;100.00
68508;BME280;55510;49.560;19.090;2023-04-19T16:04:24;96487.47;;;5.48;100.00
68508;BME280;55510;49.560;19.090;2023-04-19T16:07:25;96487.47;;;5.48;100.00